createdAt,value
2017-09-17T00:00:52.327Z,38.40
2017-09-17T00:03:20.123Z,39.13
2017-09-17T00:05:48.655Z,34.63
2017-09-17T00:08:16.477Z,36.67
2017-09-17T00:10:44.233Z,36.30
2017-09-17T00:13:13.681Z,36.78
2017-09-17T00:15:41.496Z,38.85
2017-09-17T00:18:09.271Z,32.47
2017-09-17T00:20:37.092Z,36.72
2017-09-17T00:23:04.850Z,33.85
2017-09-17T00:25:32.630Z,33.95
2017-09-17T00:28:01.195Z,32.47
2017-09-17T00:30:28.962Z,32.28
2017-09-17T00:32:56.782Z,33.17
2017-09-17T00:35:24.558Z,29.85
2017-09-17T00:37:52.322Z,29.52
2017-09-17T00:40:20.122Z,31.98
2017-09-17T00:42:48.658Z,29.95
2017-09-17T00:45:16.481Z,32.22
2017-09-17T00:47:44.263Z,31.30
2017-09-17T00:50:12.884Z,29.25
2017-09-17T00:52:40.692Z,33.08
2017-09-17T00:55:08.520Z,31.87
2017-09-17T00:57:36.337Z,32.78
2017-09-17T01:00:04.139Z,29.63
2017-09-17T01:02:31.911Z,29.35
2017-09-17T01:04:59.726Z,28.80
2017-09-17T01:07:27.484Z,29.27
2017-09-17T01:09:55.318Z,26.77
2017-09-17T01:12:23.842Z,31.40
2017-09-17T01:14:51.607Z,28.12
2017-09-17T01:17:19.406Z,25.73
2017-09-17T01:19:47.970Z,27.90
2017-09-17T01:22:16.147Z,28.62
2017-09-17T01:24:43.932Z,26.45
2017-09-17T01:27:12.454Z,27.70
2017-09-17T01:29:40.248Z,27.27
2017-09-17T01:32:08.011Z,27.52
2017-09-17T01:34:35.870Z,27.50
2017-09-17T01:37:03.632Z,27.17
2017-09-17T01:39:31.410Z,25.98
2017-09-17T01:41:59.978Z,28.27
2017-09-17T01:44:27.762Z,25.23
2017-09-17T01:46:56.350Z,25.80
2017-09-17T01:49:24.128Z,28.98
2017-09-17T01:51:51.900Z,28.40
2017-09-17T01:54:19.700Z,30.25
2017-09-17T01:56:47.465Z,28.55
2017-09-17T01:59:15.282Z,31.85
2017-09-17T02:01:43.039Z,31.80
2017-09-17T02:04:10.809Z,30.30
2017-09-17T02:06:38.595Z,34.05
2017-09-17T02:09:06.363Z,33.75
2017-09-17T02:11:34.190Z,48.50
2017-09-17T02:14:01.966Z,39.78
2017-09-17T02:16:29.727Z,35.75
2017-09-17T02:18:57.525Z,38.95
2017-09-17T02:21:25.290Z,37.75
2017-09-17T02:23:53.894Z,38.45
2017-09-17T02:26:22.428Z,35.22
2017-09-17T02:28:50.186Z,34.65
2017-09-17T02:31:18.741Z,36.25
2017-09-17T02:33:47.030Z,32.83
2017-09-17T02:36:15.133Z,35.60
2017-09-17T02:38:42.897Z,39.10
2017-09-17T02:41:10.667Z,37.75
2017-09-17T02:43:38.459Z,39.67
2017-09-17T02:46:06.245Z,38.78
2017-09-17T02:48:34.059Z,40.08
2017-09-17T02:51:02.607Z,41.58
2017-09-17T02:53:30.362Z,39.88
2017-09-17T02:55:58.169Z,39.53
2017-09-17T02:58:26.705Z,42.40
2017-09-17T03:00:54.530Z,38.20
2017-09-17T03:03:22.294Z,42.50
2017-09-17T03:05:50.056Z,36.60
2017-09-17T03:08:17.852Z,39.03
2017-09-17T03:10:45.626Z,37.25
2017-09-17T03:13:13.452Z,39.17
2017-09-17T03:15:41.218Z,39.35
2017-09-17T03:18:08.983Z,38.55
2017-09-17T03:20:36.857Z,38.25
2017-09-17T03:23:04.619Z,38.35
2017-09-17T03:25:32.468Z,36.90
2017-09-17T03:28:00.998Z,37.90
2017-09-17T03:30:28.760Z,34.85
2017-09-17T03:32:56.567Z,36.75
2017-09-17T03:35:24.339Z,35.45
2017-09-17T03:37:52.149Z,33.55
2017-09-17T03:40:19.940Z,31.77
2017-09-17T03:42:47.705Z,31.55
2017-09-17T03:45:15.580Z,31.00
2017-09-17T03:47:43.344Z,31.08
2017-09-17T03:50:11.163Z,31.05
2017-09-17T03:52:38.933Z,30.75
2017-09-17T03:55:07.474Z,28.50
2017-09-17T03:57:35.264Z,31.27
2017-09-17T04:00:03.030Z,30.23
2017-09-17T04:02:31.650Z,31.80
2017-09-17T04:04:59.422Z,31.17
2017-09-17T04:07:27.193Z,33.25
2017-09-17T04:09:54.988Z,32.05
2017-09-17T04:12:22.753Z,32.25
2017-09-17T04:14:50.575Z,29.35
2017-09-17T04:17:18.366Z,30.55
2017-09-17T04:19:46.128Z,28.55
2017-09-17T04:22:13.927Z,29.92
2017-09-17T04:24:41.705Z,30.50
2017-09-17T04:27:09.523Z,28.98
2017-09-17T04:29:37.276Z,31.08
2017-09-17T04:32:05.040Z,29.23
2017-09-17T04:34:32.818Z,31.77
2017-09-17T04:37:01.347Z,30.83
2017-09-17T04:39:29.166Z,30.92
2017-09-17T04:41:57.696Z,33.15
2017-09-17T04:44:25.455Z,30.33
2017-09-17T04:46:53.556Z,29.63
2017-09-17T04:49:21.322Z,33.33
2017-09-17T04:51:49.155Z,30.30
2017-09-17T04:54:16.923Z,30.10
2017-09-17T04:56:44.681Z,29.08
2017-09-17T04:59:12.494Z,33.72
2017-09-17T05:01:41.026Z,35.63
2017-09-17T05:04:08.844Z,35.50
2017-09-17T05:06:36.624Z,36.20
2017-09-17T05:09:04.401Z,37.50
2017-09-17T05:11:32.197Z,41.65
2017-09-17T05:13:59.968Z,35.17
2017-09-17T05:16:27.792Z,35.55
2017-09-17T05:18:55.541Z,35.20
2017-09-17T05:21:23.301Z,37.95
2017-09-17T05:23:51.106Z,35.67
2017-09-17T05:26:18.862Z,35.63
2017-09-17T05:28:46.682Z,39.47
2017-09-17T05:31:14.439Z,36.80
2017-09-17T05:33:42.211Z,37.38
2017-09-17T05:36:10.001Z,37.15
2017-09-17T05:38:37.768Z,37.80
2017-09-17T05:41:05.583Z,34.60
2017-09-17T05:43:33.333Z,35.10
2017-09-17T05:46:01.864Z,32.88
2017-09-17T05:48:29.654Z,36.22
2017-09-17T05:50:57.433Z,32.08
2017-09-17T05:53:26.020Z,31.92
2017-09-17T05:55:54.559Z,32.22
2017-09-17T05:58:22.326Z,27.92
2017-09-17T06:00:50.115Z,32.40
2017-09-17T06:03:18.654Z,31.33
2017-09-17T06:05:46.499Z,31.55
2017-09-17T06:08:14.255Z,30.70
2017-09-17T06:10:42.032Z,31.25
2017-09-17T06:13:09.838Z,30.55
2017-09-17T06:15:38.382Z,32.25
2017-09-17T06:18:06.199Z,26.40
2017-09-17T06:20:33.978Z,21.33
2017-09-17T06:23:01.742Z,19.37
2017-09-17T06:25:29.546Z,17.42
2017-09-17T06:27:57.355Z,16.25
2017-09-17T06:30:25.214Z,16.90
2017-09-17T06:32:52.983Z,15.30
2017-09-17T06:35:20.743Z,16.40
2017-09-17T06:37:48.533Z,15.60
2017-09-17T06:40:16.294Z,16.80
2017-09-17T06:42:44.106Z,14.90
2017-09-17T06:45:12.623Z,14.45
2017-09-17T06:47:40.390Z,15.32
2017-09-17T06:50:08.198Z,18.62
2017-09-17T06:52:35.953Z,16.58
2017-09-17T06:55:03.829Z,14.55
2017-09-17T06:57:31.611Z,13.07
2017-09-17T06:59:59.387Z,14.20
2017-09-17T07:02:27.210Z,13.02
2017-09-17T07:04:55.750Z,12.32
2017-09-17T07:07:23.650Z,11.12
2017-09-17T07:09:52.529Z,12.82
2017-09-17T07:12:21.751Z,13.35
2017-09-17T07:14:49.607Z,12.57
2017-09-17T07:17:17.432Z,13.25
2017-09-17T07:19:46.249Z,13.77
2017-09-17T07:22:14.139Z,14.40
2017-09-17T07:24:41.925Z,12.60
2017-09-17T07:27:09.718Z,13.45
2017-09-17T07:29:37.488Z,14.60
2017-09-17T07:32:05.324Z,15.15
2017-09-17T07:34:33.220Z,15.25
2017-09-17T07:37:01.947Z,14.07
2017-09-17T07:39:30.085Z,12.60
2017-09-17T07:41:58.673Z,14.80
2017-09-17T07:44:27.392Z,15.25
2017-09-17T07:46:55.209Z,16.05
2017-09-17T07:49:22.979Z,13.50
2017-09-17T07:51:51.544Z,15.45
2017-09-17T07:54:19.331Z,15.48
2017-09-17T07:56:47.950Z,15.07
2017-09-17T07:59:15.714Z,14.77
2017-09-17T08:01:43.473Z,16.33
2017-09-17T08:04:11.273Z,14.68
2017-09-17T08:06:39.041Z,15.77
2017-09-17T08:09:06.883Z,15.43
2017-09-17T08:11:34.645Z,13.90
2017-09-17T08:14:02.416Z,15.90
2017-09-17T08:16:30.207Z,13.65
2017-09-17T08:18:58.737Z,14.15
2017-09-17T08:21:26.568Z,14.75
2017-09-17T08:23:54.327Z,15.13
2017-09-17T08:26:22.105Z,15.40
2017-09-17T08:28:49.898Z,14.07
2017-09-17T08:31:17.670Z,14.82
2017-09-17T08:33:45.502Z,16.00
2017-09-17T08:36:13.260Z,14.77
2017-09-17T08:38:41.039Z,15.00
2017-09-17T08:41:08.841Z,14.10
2017-09-17T08:43:37.361Z,13.95
2017-09-17T08:46:05.357Z,15.50
2017-09-17T08:48:33.139Z,15.15
2017-09-17T08:51:00.893Z,12.45
2017-09-17T08:53:28.692Z,12.98
2017-09-17T08:55:56.466Z,15.27
2017-09-17T08:58:24.313Z,12.57
2017-09-17T09:00:52.121Z,13.27
2017-09-17T09:03:20.896Z,14.70
2017-09-17T09:05:48.714Z,14.43
2017-09-17T09:08:17.266Z,13.70
2017-09-17T09:10:45.099Z,13.52
2017-09-17T09:13:12.862Z,15.85
2017-09-17T09:15:40.634Z,15.18
2017-09-17T09:18:08.429Z,13.98
2017-09-17T09:20:36.223Z,15.43
2017-09-17T09:23:04.063Z,13.62
2017-09-17T09:25:32.611Z,15.50
2017-09-17T09:28:00.379Z,15.45
2017-09-17T09:30:28.169Z,15.70
2017-09-17T09:32:56.699Z,16.70
2017-09-17T09:35:24.563Z,16.08
2017-09-17T09:37:52.358Z,17.50
2017-09-17T09:40:20.122Z,15.50
2017-09-17T09:42:48.071Z,16.75
2017-09-17T09:45:15.891Z,18.25
2017-09-17T09:47:43.858Z,17.67
2017-09-17T09:50:12.155Z,16.70
2017-09-17T09:52:40.133Z,16.27
2017-09-17T09:55:08.184Z,15.65
2017-09-17T09:57:36.089Z,17.70
2017-09-17T10:00:04.107Z,16.67
2017-09-17T10:02:31.889Z,15.90
2017-09-17T10:04:59.763Z,15.63
2017-09-17T10:07:27.544Z,16.45
2017-09-17T10:09:55.380Z,18.45
2017-09-17T10:12:23.449Z,15.60
2017-09-17T10:14:51.259Z,18.10
2017-09-17T10:17:19.830Z,16.52
2017-09-17T10:19:48.593Z,16.40
2017-09-17T10:22:16.747Z,17.10
2017-09-17T10:24:44.559Z,16.27
2017-09-17T10:27:13.094Z,16.30
2017-09-17T10:29:40.904Z,20.08
2017-09-17T10:32:09.492Z,15.50
2017-09-17T10:34:38.608Z,14.20
2017-09-17T10:37:06.404Z,12.55
2017-09-17T10:39:34.226Z,11.55
2017-09-17T10:42:02.082Z,11.88
2017-09-17T10:44:30.006Z,10.82
2017-09-17T10:46:57.973Z,10.65
2017-09-17T10:49:25.845Z,9.75
2017-09-17T10:51:53.698Z,9.10
2017-09-17T10:54:21.494Z,10.10
2017-09-17T10:56:49.426Z,9.90
2017-09-17T10:59:17.244Z,9.95
2017-09-17T11:01:45.021Z,11.18
2017-09-17T11:04:12.804Z,8.80
2017-09-17T11:06:40.596Z,9.40
2017-09-17T11:09:09.158Z,11.65
2017-09-17T11:11:37.000Z,10.40
2017-09-17T11:14:04.794Z,9.80
2017-09-17T11:16:33.325Z,8.57
2017-09-17T11:19:01.124Z,8.65
2017-09-17T11:21:28.927Z,8.68
2017-09-17T11:23:56.850Z,9.45
2017-09-17T11:26:24.655Z,8.88
2017-09-17T11:28:52.440Z,9.38
2017-09-17T11:31:20.275Z,7.82
2017-09-17T11:33:48.054Z,8.05
2017-09-17T11:36:15.877Z,9.90
2017-09-17T11:38:44.433Z,9.18
2017-09-17T11:41:12.207Z,9.30
2017-09-17T11:43:39.997Z,8.90
2017-09-17T11:46:08.530Z,8.65
2017-09-17T11:48:36.353Z,10.15
2017-09-17T11:51:04.126Z,9.18
2017-09-17T11:53:31.912Z,8.80
2017-09-17T11:55:59.699Z,8.70
2017-09-17T11:58:27.461Z,10.38
2017-09-17T12:00:55.277Z,9.88
2017-09-17T12:03:23.058Z,8.90
2017-09-17T12:05:50.830Z,9.90
2017-09-17T12:08:18.634Z,8.98
2017-09-17T12:10:47.188Z,8.93
2017-09-17T12:13:15.000Z,7.57
2017-09-17T12:15:42.770Z,10.57
2017-09-17T12:18:10.517Z,9.90
2017-09-17T12:20:38.314Z,10.38
2017-09-17T12:23:06.087Z,9.27
2017-09-17T12:25:33.899Z,9.45
2017-09-17T12:28:02.415Z,9.38
2017-09-17T12:30:30.174Z,8.48
2017-09-17T12:32:57.960Z,7.82
2017-09-17T12:35:25.712Z,7.47
2017-09-17T12:37:53.518Z,9.65
2017-09-17T12:40:22.057Z,9.23
2017-09-17T12:42:49.828Z,9.13
2017-09-17T12:45:17.633Z,9.20
2017-09-17T12:47:45.400Z,9.60
2017-09-17T12:50:13.228Z,10.05
2017-09-17T12:52:40.997Z,10.63
2017-09-17T12:55:09.556Z,13.43
2017-09-17T12:57:37.345Z,12.13
2017-09-17T13:00:05.884Z,12.10
2017-09-17T13:02:33.715Z,12.25
2017-09-17T13:05:01.471Z,15.85
2017-09-17T13:07:29.252Z,14.87
2017-09-17T13:09:57.046Z,14.20
2017-09-17T13:12:24.811Z,14.48
2017-09-17T13:14:52.659Z,15.27
2017-09-17T13:17:20.436Z,16.77
2017-09-17T13:19:48.226Z,16.85
2017-09-17T13:22:16.781Z,18.35
2017-09-17T13:24:44.534Z,20.08
2017-09-17T13:27:12.345Z,17.08
2017-09-17T13:29:40.108Z,20.85
2017-09-17T13:32:07.860Z,17.42
2017-09-17T13:34:36.427Z,17.15
2017-09-17T13:37:04.960Z,18.48
2017-09-17T13:39:32.794Z,18.12
2017-09-17T13:42:00.578Z,18.42
2017-09-17T13:44:28.374Z,17.75
2017-09-17T13:46:56.190Z,17.98
2017-09-17T13:49:24.744Z,16.48
2017-09-17T13:51:53.354Z,17.65
2017-09-17T13:54:21.132Z,18.58
2017-09-17T13:56:48.911Z,17.83
2017-09-17T13:59:17.479Z,17.25
2017-09-17T14:01:55.184Z,17.10
2017-09-17T14:04:23.767Z,17.50
2017-09-17T14:20:15.053Z,14.70
2017-09-17T14:22:42.841Z,16.30
2017-09-17T14:25:11.533Z,16.60
2017-09-17T14:27:40.069Z,15.63
2017-09-17T14:30:07.861Z,14.98
2017-09-17T14:32:35.648Z,16.25
2017-09-17T14:35:03.430Z,15.35
2017-09-17T14:37:31.269Z,12.50
2017-09-17T14:39:59.801Z,13.35
2017-09-17T14:42:27.562Z,12.25
2017-09-17T14:44:55.354Z,11.40
2017-09-17T14:47:23.147Z,11.30
2017-09-17T14:49:50.973Z,11.82
2017-09-17T14:52:18.738Z,10.55
2017-09-17T14:54:46.502Z,11.30
2017-09-17T14:57:14.295Z,10.95
2017-09-17T14:59:42.059Z,10.55
2017-09-17T15:02:09.898Z,11.50
2017-09-17T15:04:38.413Z,9.00
2017-09-17T15:07:06.179Z,10.80
2017-09-17T15:09:34.755Z,9.50
2017-09-17T15:12:02.518Z,10.68
2017-09-17T15:14:30.332Z,9.70
2017-09-17T15:16:58.103Z,10.70
2017-09-17T15:19:26.656Z,10.45
2017-09-17T15:21:54.459Z,9.32
2017-09-17T15:24:22.233Z,9.85
2017-09-17T15:26:50.049Z,11.43
2017-09-17T15:29:17.842Z,15.20
2017-09-17T15:31:46.368Z,19.17
2017-09-17T15:34:14.158Z,16.60
2017-09-17T15:36:41.916Z,15.85
2017-09-17T15:39:09.753Z,16.30
2017-09-17T15:41:37.527Z,16.98
2017-09-17T15:44:05.277Z,18.23
2017-09-17T15:46:33.071Z,18.73
2017-09-17T15:49:00.839Z,19.48
2017-09-17T15:51:29.434Z,20.92
2017-09-17T15:53:57.961Z,17.90
2017-09-17T15:56:25.738Z,20.10
2017-09-17T15:58:53.535Z,20.27
2017-09-17T16:01:22.077Z,20.12
2017-09-17T16:03:49.913Z,20.25
2017-09-17T16:06:17.664Z,21.80
2017-09-17T16:08:45.433Z,22.62
2017-09-17T16:11:13.359Z,23.98
2017-09-17T16:13:41.160Z,23.00
2017-09-17T16:16:09.005Z,21.95
2017-09-17T16:18:36.778Z,22.45
2017-09-17T16:21:04.764Z,22.62
2017-09-17T16:23:32.586Z,20.33
2017-09-17T16:26:01.132Z,21.70
2017-09-17T16:28:29.803Z,19.15
2017-09-17T16:30:57.572Z,20.05
2017-09-17T16:33:25.496Z,19.10
2017-09-17T16:35:53.354Z,19.92
2017-09-17T16:38:21.156Z,20.65
2017-09-17T16:40:49.021Z,21.87
2017-09-17T16:43:18.039Z,22.00
2017-09-17T16:45:45.818Z,19.17
2017-09-17T16:48:14.576Z,19.95
2017-09-17T16:50:42.435Z,19.00
2017-09-17T16:53:10.275Z,12.68
2017-09-17T16:55:38.117Z,13.75
2017-09-17T16:58:05.998Z,15.93
2017-09-17T17:00:34.027Z,15.02
2017-09-17T17:03:02.576Z,19.05
2017-09-17T17:05:30.419Z,22.00
2017-09-17T17:07:58.723Z,25.20
2017-09-17T17:10:26.497Z,24.35
2017-09-17T17:12:55.082Z,21.80
2017-09-17T17:15:23.630Z,21.20
2017-09-17T17:17:51.513Z,20.27
2017-09-17T17:20:19.286Z,22.13
2017-09-17T17:22:47.818Z,19.98
2017-09-17T17:25:15.633Z,21.52
2017-09-17T17:27:44.165Z,20.30
2017-09-17T17:30:12.010Z,23.33
2017-09-17T17:32:39.790Z,22.40
2017-09-17T17:35:07.557Z,20.75
2017-09-17T17:37:35.347Z,23.90
2017-09-17T17:40:03.900Z,23.75
2017-09-17T17:42:31.725Z,23.10
2017-09-17T17:44:59.520Z,24.02
2017-09-17T17:47:27.308Z,25.00
2017-09-17T17:49:55.127Z,25.48
2017-09-17T17:52:22.977Z,24.48
2017-09-17T17:54:50.859Z,21.80
2017-09-17T17:57:18.634Z,21.50
2017-09-17T17:59:46.400Z,21.80
2017-09-17T18:02:14.198Z,21.85
2017-09-17T18:04:42.742Z,21.70
2017-09-17T18:07:11.614Z,22.58
2017-09-17T18:09:39.386Z,22.40
2017-09-17T18:12:07.168Z,20.98
2017-09-17T18:14:34.976Z,21.33
2017-09-17T18:17:02.737Z,21.60
2017-09-17T18:19:30.587Z,21.87
2017-09-17T18:21:58.363Z,20.25
2017-09-17T18:24:26.133Z,17.55
2017-09-17T18:26:53.938Z,19.95
2017-09-17T18:29:21.757Z,17.70
2017-09-17T18:31:50.347Z,17.20
2017-09-17T18:34:18.765Z,17.70
2017-09-17T18:36:46.548Z,16.08
2017-09-17T18:39:15.139Z,15.75
2017-09-17T18:41:43.703Z,15.57
2017-09-17T18:44:12.354Z,13.73
2017-09-17T18:46:40.128Z,14.48
2017-09-17T18:49:07.918Z,13.15
2017-09-17T18:51:36.492Z,13.55
2017-09-17T18:54:05.032Z,12.35
2017-09-17T18:56:32.869Z,12.60
2017-09-17T18:59:00.643Z,13.52
2017-09-17T19:01:28.442Z,11.25
2017-09-17T19:03:56.261Z,14.38
2017-09-17T19:06:24.040Z,13.50
2017-09-17T19:08:51.894Z,12.15
2017-09-17T19:11:19.837Z,12.63
2017-09-17T19:13:47.616Z,15.13
2017-09-17T19:16:15.463Z,13.65
2017-09-17T19:18:43.341Z,12.80
2017-09-17T19:21:11.195Z,12.95
2017-09-17T19:23:39.061Z,14.77
2017-09-17T19:26:07.208Z,13.90
2017-09-17T19:28:35.793Z,13.40
2017-09-17T19:31:04.337Z,12.73
2017-09-17T19:33:32.233Z,13.48
2017-09-17T19:36:00.835Z,13.57
2017-09-17T19:38:28.628Z,14.25
2017-09-17T19:40:56.516Z,13.60
2017-09-17T19:43:24.334Z,14.75
2017-09-17T19:45:52.220Z,15.48
2017-09-17T19:48:20.007Z,14.27
2017-09-17T19:50:47.863Z,12.73
2017-09-17T19:53:15.688Z,15.55
2017-09-17T19:55:43.474Z,13.73
2017-09-17T19:58:11.329Z,13.13
2017-09-17T20:00:39.121Z,12.32
2017-09-17T20:03:06.893Z,13.88
2017-09-17T20:05:34.735Z,12.48
2017-09-17T20:08:02.719Z,13.38
2017-09-17T20:10:30.615Z,14.50
2017-09-17T20:12:59.188Z,13.93
2017-09-17T20:15:27.711Z,13.40
2017-09-17T20:17:55.519Z,12.85
2017-09-17T20:20:24.055Z,12.88
2017-09-17T20:22:51.927Z,13.60
2017-09-17T20:25:19.721Z,12.00
2017-09-17T20:27:47.534Z,11.48
2017-09-17T20:30:15.387Z,13.10
2017-09-17T20:32:43.217Z,13.57
2017-09-17T20:35:11.890Z,11.07
2017-09-17T20:37:39.674Z,13.15
2017-09-17T20:40:07.510Z,12.95
2017-09-17T20:42:36.121Z,12.50
2017-09-17T20:45:03.890Z,12.65
2017-09-17T20:47:31.743Z,13.07
2017-09-17T20:50:00.346Z,12.05
2017-09-17T20:52:28.138Z,13.23
2017-09-17T20:54:55.953Z,12.27
2017-09-17T20:57:23.727Z,13.30
2017-09-17T20:59:51.548Z,12.50
2017-09-17T21:02:19.312Z,13.48
2017-09-17T21:04:47.137Z,14.55
2017-09-17T21:07:14.930Z,14.65
2017-09-17T21:09:42.690Z,16.37
2017-09-17T21:12:10.515Z,16.48
2017-09-17T21:14:38.299Z,16.33
2017-09-17T21:17:06.056Z,20.20
2017-09-17T21:19:33.898Z,18.60
2017-09-17T21:22:01.675Z,20.10
2017-09-17T21:24:30.357Z,21.58
2017-09-17T21:26:58.125Z,20.27
2017-09-17T21:29:25.907Z,19.85
2017-09-17T21:31:53.704Z,20.45
2017-09-17T21:34:21.479Z,19.60
2017-09-17T21:36:49.354Z,19.40
2017-09-17T21:39:17.179Z,19.70
2017-09-17T21:41:44.986Z,19.77
2017-09-17T21:44:12.797Z,20.77
2017-09-17T21:46:40.581Z,20.00
2017-09-17T21:49:09.169Z,18.37
2017-09-17T21:51:36.925Z,21.08
2017-09-17T21:54:05.460Z,19.02
2017-09-17T21:56:33.263Z,18.30
2017-09-17T21:59:01.028Z,19.27
2017-09-17T22:01:28.861Z,18.02
2017-09-17T22:03:56.621Z,20.20
2017-09-17T22:06:24.381Z,18.77
2017-09-17T22:08:52.162Z,16.67
2017-09-17T22:11:20.699Z,19.62
2017-09-17T22:13:48.530Z,18.90
2017-09-17T22:16:16.293Z,18.70
2017-09-17T22:18:44.060Z,18.08
2017-09-17T22:21:11.855Z,20.48
2017-09-17T22:23:39.624Z,18.70
2017-09-17T22:26:07.440Z,19.50
2017-09-17T22:28:35.209Z,17.62
2017-09-17T22:31:02.975Z,21.62
2017-09-17T22:33:30.765Z,17.77
2017-09-17T22:35:58.522Z,20.90
2017-09-17T22:38:26.337Z,21.45
2017-09-17T22:40:54.873Z,18.27
2017-09-17T22:43:22.651Z,19.80
2017-09-17T22:45:50.452Z,17.23
2017-09-17T22:48:18.214Z,19.33
2017-09-17T22:50:46.801Z,17.85
2017-09-17T22:53:14.564Z,17.92
2017-09-17T22:55:42.327Z,17.27
2017-09-17T22:58:10.132Z,18.02
2017-09-17T23:00:37.902Z,17.00
2017-09-17T23:03:05.733Z,15.75
2017-09-17T23:05:33.497Z,18.55
2017-09-17T23:08:01.262Z,15.70
2017-09-17T23:10:29.071Z,16.15
2017-09-17T23:12:56.862Z,15.30
2017-09-17T23:15:24.855Z,15.50
2017-09-17T23:17:52.615Z,15.45
2017-09-17T23:20:20.398Z,15.93
2017-09-17T23:22:48.179Z,14.98
2017-09-17T23:25:16.717Z,15.43
2017-09-17T23:27:44.547Z,16.42
2017-09-17T23:30:12.329Z,14.20
2017-09-17T23:32:40.092Z,14.52
2017-09-17T23:35:07.881Z,15.10
2017-09-17T23:37:35.653Z,15.70
2017-09-17T23:40:03.476Z,14.55
2017-09-17T23:42:31.249Z,15.05
2017-09-17T23:44:59.011Z,14.57
2017-09-17T23:47:26.802Z,14.38
2017-09-17T23:49:54.575Z,14.93
2017-09-17T23:52:23.158Z,14.80
2017-09-17T23:54:51.695Z,13.62
2017-09-17T23:57:19.451Z,15.02
2017-09-17T23:59:47.267Z,14.63
